Time;durP1;ratioP1;P1;durP2;ratioP2;P2;SDS_P1;SDS_P2;PMS_P1;PMS_P2;Temp;Humidity;BMP_temperature;BMP_pressure;BME280_temperature;BME280_humidity;BME280_pressure;Samples;Min_cycle;Max_cycle;Signal;HPM_P1;HPM_P2
2022/04/16 00:00:21;;;;;;;5.50;2.50;;;;;;;4.90;81.35;102316.81;4999272;28;20644;-60
2022/04/16 00:02:48;;;;;;;7.95;3.00;;;;;;;4.91;81.67;102327.16;5000070;28;20053;-60
2022/04/16 00:05:15;;;;;;;9.43;3.22;;;;;;;4.89;81.36;102321.06;4998726;28;20073;-60
2022/04/16 00:07:43;;;;;;;8.27;2.70;;;;;;;4.88;81.52;102324.44;4999452;28;20073;-60
2022/04/16 00:10:10;;;;;;;8.40;2.53;;;;;;;4.88;81.97;102319.31;4998791;28;20050;-60
2022/04/16 00:12:37;;;;;;;6.18;2.63;;;;;;;4.88;81.77;102328.72;4999787;28;20054;-60
2022/04/16 00:15:06;;;;;;;8.55;2.40;;;;;;;4.89;81.68;102330.47;4999084;28;20116;-60
2022/04/16 00:17:33;;;;;;;9.93;2.28;;;;;;;4.87;81.31;102327.84;4997718;28;20050;-60
2022/04/16 00:20:02;;;;;;;6.93;2.53;;;;;;;4.86;81.85;102325.22;4998526;28;20054;-60
2022/04/16 00:22:29;;;;;;;8.38;2.97;;;;;;;4.85;82.15;102329.47;4998305;28;20113;-60
2022/04/16 00:24:57;;;;;;;7.22;3.10;;;;;;;4.81;82.04;102327.59;4998263;28;20050;-60
2022/04/16 00:27:24;;;;;;;9.43;3.25;;;;;;;4.81;81.85;102331.84;4998709;28;20051;-59
2022/04/16 00:29:50;;;;;;;9.52;3.30;;;;;;;4.79;81.40;102339.50;4998808;28;20070;-60
2022/04/16 00:32:19;;;;;;;6.80;2.00;;;;;;;4.75;82.25;102332.50;4998776;28;20451;-59
2022/04/16 00:34:46;;;;;;;5.07;2.00;;;;;;;4.73;81.92;102339.25;4998801;28;20109;-60
2022/04/16 00:37:12;;;;;;;5.43;1.70;;;;;;;4.72;82.21;102345.22;4998215;28;20066;-60
2022/04/16 00:39:39;;;;;;;3.92;1.52;;;;;;;4.70;81.74;102344.28;4998529;28;20047;-60
2022/04/16 00:42:07;;;;;;;4.75;1.80;;;;;;;4.69;82.27;102348.53;4998666;28;20050;-59
2022/04/16 00:44:34;;;;;;;4.55;1.63;;;;;;;4.69;81.98;102353.66;4997340;28;20387;-59
2022/04/16 00:47:00;;;;;;;9.30;2.00;;;;;;;4.63;81.81;102355.94;4998211;28;20054;-60
2022/04/16 00:49:26;;;;;;;3.60;1.52;;;;;;;4.62;81.83;102358.47;4999159;28;20120;-60
2022/04/16 00:51:53;;;;;;;5.57;1.60;;;;;;;4.59;82.04;102356.63;4998467;28;20054;-60
2022/04/16 00:54:20;;;;;;;8.25;2.00;;;;;;;4.58;82.07;102364.28;4997792;28;20050;-60
2022/04/16 00:56:47;;;;;;;6.60;1.75;;;;;;;4.53;82.20;102356.38;4998376;28;20061;-60
2022/04/16 00:59:15;;;;;;;4.57;1.90;;;;;;;4.50;81.56;102358.81;4998656;28;20443;-60
2022/04/16 01:01:41;;;;;;;5.22;1.52;;;;;;;4.47;82.25;102362.97;4998560;28;20065;-59
2022/04/16 01:04:08;;;;;;;7.90;2.78;;;;;;;4.39;82.57;102368.66;4997601;28;20065;-59
2022/04/16 01:06:37;;;;;;;5.68;1.48;;;;;;;4.34;82.12;102370.16;4997460;28;20444;-59
2022/04/16 01:09:04;;;;;;;10.02;2.00;;;;;;;4.31;82.76;102364.00;4997141;28;20054;-59
2022/04/16 01:11:32;;;;;;;4.28;1.58;;;;;;;4.23;82.81;102368.81;4997503;28;20061;-59
2022/04/16 01:13:58;;;;;;;4.03;1.50;;;;;;;4.19;82.65;102364.34;4997205;28;20465;-60
2022/04/16 01:16:27;;;;;;;11.43;1.85;;;;;;;4.13;83.13;102372.63;4998313;28;20109;-58
2022/04/16 01:18:53;;;;;;;4.55;1.35;;;;;;;4.07;82.77;102364.66;4997315;28;20510;-60
2022/04/16 01:21:19;;;;;;;5.25;1.45;;;;;;;4.05;83.54;102375.69;4997523;28;20057;-60
2022/04/16 01:23:47;;;;;;;6.60;1.20;;;;;;;4.01;83.35;102373.78;4997552;28;20104;-60
2022/04/16 01:26:14;;;;;;;5.43;1.60;;;;;;;3.98;83.01;102378.78;4997859;28;20068;-60
2022/04/16 01:28:41;;;;;;;5.93;1.95;;;;;;;3.93;83.65;102376.00;4997696;28;20057;-58
2022/04/16 01:31:07;;;;;;;4.03;1.50;;;;;;;3.91;83.97;102371.63;4997860;28;20078;-60
2022/04/16 01:33:33;;;;;;;8.88;1.80;;;;;;;3.87;83.87;102380.00;4998132;28;20057;-60
2022/04/16 01:36:00;;;;;;;8.75;1.40;;;;;;;3.87;83.92;102385.13;4997731;28;20112;-59
2022/04/16 01:38:26;;;;;;;4.78;1.80;;;;;;;3.86;83.82;102378.25;4997345;28;20050;-60
2022/04/16 01:40:56;;;;;;;7.20;1.55;;;;;;;3.80;84.08;102384.84;4997890;28;20050;-60
2022/04/16 01:43:23;;;;;;;7.85;2.20;;;;;;;3.79;84.80;102382.22;4997830;28;20415;-60
2022/04/16 01:45:50;;;;;;;8.52;1.80;;;;;;;3.74;84.64;102384.59;4997505;28;20063;-59
2022/04/16 01:48:16;;;;;;;6.50;1.67;;;;;;;3.73;85.02;102377.69;4997810;28;20166;-60
2022/04/16 01:50:43;;;;;;;7.03;1.90;;;;;;;3.72;84.52;102386.19;4997128;28;20085;-60
2022/04/16 01:53:10;;;;;;;7.88;1.73;;;;;;;3.70;85.20;102385.25;4996732;28;20481;-60
2022/04/16 01:55:36;;;;;;;8.93;1.42;;;;;;;3.68;84.78;102389.44;4997482;28;20054;-60
2022/04/16 01:58:06;;;;;;;6.72;1.80;;;;;;;3.63;84.90;102388.31;4997094;28;20498;-60
2022/04/16 02:00:33;;;;;;;8.68;1.67;;;;;;;3.62;85.52;102399.38;4997050;28;20054;-60
2022/04/16 02:03:00;;;;;;;5.53;1.50;;;;;;;3.61;84.88;102402.75;4996769;28;20057;-60
2022/04/16 02:05:26;;;;;;;5.50;1.50;;;;;;;3.59;85.19;102399.22;4996812;28;20061;-60
2022/04/16 02:07:54;;;;;;;8.70;2.00;;;;;;;3.58;85.79;102400.03;4996438;28;20065;-59
2022/04/16 02:10:20;;;;;;;4.00;1.50;;;;;;;3.58;85.13;102405.16;4997293;28;20051;-59
2022/04/16 02:12:47;;;;;;;6.50;1.80;;;;;;;3.55;85.64;102407.59;4996827;28;20141;-59
2022/04/16 02:15:15;;;;;;;6.43;1.73;;;;;;;3.52;85.60;102407.44;4997350;28;20061;-60
2022/04/16 02:17:42;;;;;;;7.65;1.50;;;;;;;3.52;85.47;102412.56;4997220;28;20054;-60
2022/04/16 02:20:10;;;;;;;5.03;1.65;;;;;;;3.51;85.09;102410.81;4996810;28;20058;-58
2022/04/16 02:22:41;;;;;;;4.18;1.17;;;;;;;3.49;85.67;102412.44;4996444;28;20047;-60
2022/04/16 02:25:09;;;;;;;6.80;1.85;;;;;;;3.47;85.95;102411.47;4996788;28;20133;-60
2022/04/16 02:27:35;;;;;;;4.90;1.63;;;;;;;3.44;85.56;102419.03;4997098;28;20085;-60
2022/04/16 02:30:05;;;;;;;4.88;1.30;;;;;;;3.43;85.88;102422.41;4996635;28;20065;-60
2022/04/16 02:32:36;;;;;;;10.68;1.92;;;;;;;3.41;85.97;102421.47;4996258;28;20058;-60
2022/04/16 02:35:03;;;;;;;7.13;1.60;;;;;;;3.37;86.14;102419.56;4996649;28;20058;-60
2022/04/16 02:37:29;;;;;;;8.85;1.83;;;;;;;3.39;85.70;102425.63;4996238;28;20363;-60
2022/04/16 02:39:56;;;;;;;3.95;1.15;;;;;;;3.38;85.65;102423.88;4996825;28;20069;-60
2022/04/16 02:42:22;;;;;;;5.30;1.40;;;;;;;3.36;86.16;102431.50;4996657;28;20054;-60
2022/04/16 02:47:34;;;;;;;7.38;1.75;;;;;;;3.34;85.69;102442.47;4996201;28;20591;-60
2022/04/16 02:50:00;;;;;;;5.25;1.60;;;;;;;3.32;86.05;102444.09;4996489;28;20460;-58
2022/04/16 02:52:26;;;;;;;9.38;2.35;;;;;;;3.30;86.57;102435.44;4990589;28;20038;-60
2022/04/16 02:54:53;;;;;;;7.38;1.40;;;;;;;3.30;86.26;102443.13;4978744;28;20065;-59
2022/04/16 02:57:20;;;;;;;5.53;1.40;;;;;;;3.26;86.21;102444.69;4996269;28;20092;-59
2022/04/16 02:59:47;;;;;;;8.95;2.70;;;;;;;3.25;86.36;102445.47;4996296;28;20054;-60
2022/04/16 03:02:13;;;;;;;5.10;1.60;;;;;;;3.24;86.86;102445.41;4995844;28;20078;-60
2022/04/16 03:04:41;;;;;;;5.90;1.77;;;;;;;3.25;86.44;102445.47;4996212;28;20061;-60
2022/04/16 03:07:07;;;;;;;5.22;1.40;;;;;;;3.25;87.18;102442.91;4996392;28;20448;-60
2022/04/16 03:09:34;;;;;;;4.30;1.40;;;;;;;3.29;86.87;102443.94;4996058;28;20375;-60
2022/04/16 03:12:00;;;;;;;8.27;1.70;;;;;;;3.32;87.02;102446.66;4996652;28;20050;-60
2022/04/16 03:19:56;;;;;;;4.13;1.50;;;;;;;3.45;87.31;102456.69;4996788;28;20070;-60
2022/04/16 03:22:22;;;;;;;5.13;1.20;;;;;;;3.46;86.95;102461.00;5000582;28;20062;-60
2022/04/16 03:24:49;;;;;;;6.82;2.00;;;;;;;3.51;86.63;102462.09;4999685;28;20050;-59
2022/04/16 03:27:16;;;;;;;5.57;1.58;;;;;;;3.54;86.81;102471.63;4999974;28;20062;-60
2022/04/16 03:29:42;;;;;;;8.13;1.75;;;;;;;3.56;86.60;102470.88;5000015;28;20054;-59
2022/04/16 03:32:09;;;;;;;6.57;2.00;;;;;;;3.56;86.68;102472.56;4999675;28;20053;-59
2022/04/16 03:34:37;;;;;;;5.65;1.55;;;;;;;3.57;87.12;102477.78;4999525;28;20050;-59
2022/04/16 03:37:05;;;;;;;8.30;1.73;;;;;;;3.57;87.33;102482.91;5000439;28;20149;-59
2022/04/16 03:39:32;;;;;;;5.03;1.45;;;;;;;3.56;87.22;102483.72;4999813;28;20051;-59
2022/04/16 03:41:58;;;;;;;4.90;1.42;;;;;;;3.57;86.56;102482.91;5000284;28;20097;-59
2022/04/16 03:44:24;;;;;;;7.88;2.08;;;;;;;3.58;86.95;102489.78;4999538;28;20399;-60
2022/04/16 03:46:51;;;;;;;5.47;1.50;;;;;;;3.61;86.99;102484.81;5000143;28;20054;-59
2022/04/16 03:49:17;;;;;;;5.50;1.60;;;;;;;3.60;87.08;102488.19;4999585;28;20050;-60
2022/04/16 03:51:44;;;;;;;5.65;1.60;;;;;;;3.62;87.28;102486.56;4999460;28;20377;-60
2022/04/16 04:02:24;;;;;;;6.28;1.95;;;;;;;3.74;86.21;102502.56;4998654;28;20057;-60
2022/04/16 04:04:50;;;;;;;7.80;2.00;;;;;;;3.77;86.13;102501.84;4999017;28;20051;-59
2022/04/16 04:07:18;;;;;;;4.82;1.65;;;;;;;3.78;86.39;102499.34;4998686;28;20557;-59
2022/04/16 04:09:46;;;;;;;9.18;2.17;;;;;;;3.82;86.50;102509.75;4998922;28;20050;-60
2022/04/16 04:12:13;;;;;;;7.57;1.60;;;;;;;3.87;86.05;102504.03;4998574;28;20379;-60
2022/04/16 04:14:41;;;;;;;8.68;1.42;;;;;;;3.94;86.29;102511.19;4999066;28;20062;-59
2022/04/16 04:17:08;;;;;;;5.43;1.70;;;;;;;3.99;86.14;102513.97;4998964;28;20054;-59
2022/04/16 04:19:36;;;;;;;5.10;1.15;;;;;;;4.07;85.89;102507.50;4999194;28;20189;-59
2022/04/16 04:22:03;;;;;;;4.78;1.52;;;;;;;4.11;85.79;102517.09;4998727;28;20093;-59
2022/04/16 04:24:29;;;;;;;9.40;2.00;;;;;;;4.15;85.47;102516.44;4996553;28;20054;-58
2022/04/16 04:26:58;;;;;;;8.48;1.90;;;;;;;4.23;85.16;102520.25;4996633;28;20142;-60
2022/04/16 04:29:24;;;;;;;9.50;1.50;;;;;;;4.31;85.03;102524.06;4996548;28;20057;-57
2022/04/16 04:31:51;;;;;;;7.40;1.80;;;;;;;4.40;85.14;102524.47;4996062;28;20046;-58
2022/04/16 04:34:19;;;;;;;3.78;1.33;;;;;;;4.51;84.29;102534.34;4997290;28;20050;-59
2022/04/16 04:36:45;;;;;;;6.32;1.60;;;;;;;4.65;84.90;102535.81;4998526;28;20058;-60
2022/04/16 04:39:12;;;;;;;6.95;1.50;;;;;;;4.80;84.43;102531.38;4998760;28;20069;-59
2022/04/16 04:41:38;;;;;;;6.47;2.40;;;;;;;5.04;84.08;102537.56;4998592;28;20050;-59
2022/04/16 04:44:06;;;;;;;5.95;1.77;;;;;;;5.43;83.79;102540.06;4998846;28;20054;-60
2022/04/16 04:46:33;;;;;;;4.57;1.88;;;;;;;5.92;82.90;102539.53;4998146;28;20058;-60
2022/04/16 04:48:59;;;;;;;7.13;1.95;;;;;;;6.46;80.94;102539.88;4998936;28;20054;-60
2022/04/16 04:51:26;;;;;;;6.82;2.10;;;;;;;7.00;79.46;102547.88;4998676;28;20053;-61
2022/04/16 04:53:52;;;;;;;7.13;2.03;;;;;;;7.45;77.22;102548.56;4998983;28;20054;-61
2022/04/16 04:56:18;;;;;;;4.80;2.08;;;;;;;7.84;74.16;102551.56;4999024;28;20065;-61
2022/04/16 04:58:45;;;;;;;5.93;2.50;;;;;;;8.24;72.71;102549.38;4999557;28;20062;-61
2022/04/16 05:01:14;;;;;;;7.88;2.72;;;;;;;8.63;70.90;102560.88;4998934;28;20104;-61
2022/04/16 05:03:40;;;;;;;6.15;2.08;;;;;;;8.99;68.93;102566.22;4999385;28;20053;-61
2022/04/16 05:06:07;;;;;;;7.65;2.60;;;;;;;9.34;67.21;102557.66;4999281;28;20470;-61
2022/04/16 05:08:33;;;;;;;7.97;2.08;;;;;;;9.70;65.18;102567.22;4999755;28;20103;-61
2022/04/16 05:11:00;;;;;;;4.45;2.50;;;;;;;10.10;63.68;102569.03;5000597;28;20061;-61
2022/04/16 05:13:26;;;;;;;4.88;1.80;;;;;;;10.47;61.97;102575.06;4999123;28;20053;-62
2022/04/16 05:15:53;;;;;;;6.63;2.25;;;;;;;10.89;60.66;102580.25;4998346;28;20090;-62
2022/04/16 05:18:21;;;;;;;4.32;1.83;;;;;;;11.30;58.05;102584.50;4997997;28;20069;-61
2022/04/16 05:20:47;;;;;;;5.10;1.67;;;;;;;11.63;56.08;102583.38;4998580;28;20050;-62
2022/04/16 05:23:13;;;;;;;5.57;1.90;;;;;;;11.89;53.47;102576.88;4998187;28;20054;-62
2022/04/16 05:25:40;;;;;;;5.30;1.65;;;;;;;12.05;52.41;102571.94;4998901;28;20058;-62
2022/04/16 05:28:09;;;;;;;6.07;1.95;;;;;;;12.26;52.47;102593.03;4998713;28;20050;-61
2022/04/16 05:30:39;;;;;;;3.45;1.50;;;;;;;12.39;51.42;102589.75;4997898;28;20136;-62
2022/04/16 05:33:16;;;;;;;5.40;1.83;;;;;;;12.68;51.12;102587.56;4998453;28;20150;-62
2022/04/16 05:35:44;;;;;;;3.83;1.60;;;;;;;13.14;50.47;102599.38;4998480;28;20046;-62
2022/04/16 05:38:11;;;;;;;5.28;1.88;;;;;;;13.52;49.32;102596.28;4998069;28;20078;-62
2022/04/16 05:40:37;;;;;;;3.75;1.60;;;;;;;13.90;47.69;102594.88;4997930;28;20054;-62
2022/04/16 05:43:03;;;;;;;5.13;1.80;;;;;;;14.27;46.76;102596.88;4997839;28;20387;-62
2022/04/16 05:45:30;;;;;;;4.85;1.70;;;;;;;14.71;45.88;102594.53;4998282;28;20058;-62
2022/04/16 05:47:57;;;;;;;6.05;1.67;;;;;;;15.05;44.83;102599.00;4998876;28;20054;-62
2022/04/16 05:50:23;;;;;;;3.42;1.70;;;;;;;15.57;44.11;102604.31;4999095;28;20051;-62
2022/04/16 05:52:52;;;;;;;6.18;1.85;;;;;;;16.01;42.88;102595.63;4999542;28;20061;-62
2022/04/16 05:55:18;;;;;;;2.67;1.42;;;;;;;16.49;42.34;102599.91;4998369;28;20050;-62
2022/04/16 05:57:46;;;;;;;3.55;1.30;;;;;;;16.94;40.37;102590.16;4998446;28;20054;-62
2022/04/16 06:00:13;;;;;;;4.13;1.67;;;;;;;17.31;39.70;102593.44;4998268;28;20061;-62
2022/04/16 06:02:40;;;;;;;4.82;2.05;;;;;;;17.75;39.02;102589.63;4995640;28;20046;-62
2022/04/16 06:05:07;;;;;;;5.07;1.08;;;;;;;18.09;37.84;102585.81;4995778;28;20495;-62
2022/04/16 06:07:34;;;;;;;2.88;1.13;;;;;;;18.33;36.54;102594.31;4996442;28;20090;-61
2022/04/16 06:10:01;;;;;;;3.28;1.80;;;;;;;18.66;36.41;102593.94;4997488;28;20054;-62
2022/04/16 06:12:28;;;;;;;4.05;1.33;;;;;;;18.89;35.89;102594.53;4997713;28;20058;-62
2022/04/16 06:14:54;;;;;;;4.38;1.52;;;;;;;19.28;34.07;102600.13;4998619;28;20054;-62
2022/04/16 06:17:21;;;;;;;4.63;1.70;;;;;;;19.46;34.04;102599.84;4998501;28;20054;-62
2022/04/16 06:19:47;;;;;;;4.32;1.63;;;;;;;19.71;33.87;102596.81;4998513;28;20459;-62
2022/04/16 06:22:14;;;;;;;2.95;1.30;;;;;;;19.96;33.14;102600.78;4998615;28;20050;-62
2022/04/16 06:24:40;;;;;;;4.72;1.90;;;;;;;20.61;32.80;102598.69;4998530;28;20054;-62
2022/04/16 06:27:08;;;;;;;3.63;1.55;;;;;;;21.00;30.69;102604.03;4997941;28;20095;-61
2022/04/16 06:29:35;;;;;;;3.60;1.63;;;;;;;21.23;30.92;102607.03;4997533;28;20085;-61
2022/04/16 06:32:01;;;;;;;2.85;1.10;;;;;;;21.64;29.44;102607.81;4998020;28;20057;-61
2022/04/16 06:34:28;;;;;;;2.45;1.00;;;;;;;21.95;28.33;102603.50;4997367;28;20065;-62
2022/04/16 06:36:54;;;;;;;2.28;0.85;;;;;;;21.86;29.08;102609.03;4997254;28;20056;-61
2022/04/16 06:39:21;;;;;;;3.05;1.00;;;;;;;22.04;29.05;102602.44;4997468;28;20061;-61
2022/04/16 06:41:47;;;;;;;3.17;1.48;;;;;;;22.14;28.90;102613.59;4995224;28;20050;-61
2022/04/16 06:44:15;;;;;;;2.13;0.82;;;;;;;22.26;27.47;102613.25;4997610;28;20051;-61
2022/04/16 06:46:42;;;;;;;4.55;1.10;;;;;;;22.20;28.61;102613.44;4999954;28;20050;-62
2022/04/16 06:49:08;;;;;;;2.05;1.20;;;;;;;22.26;29.56;102616.78;5000311;28;20046;-62
2022/04/16 06:51:35;;;;;;;3.28;1.10;;;;;;;22.49;29.80;102626.72;5000343;28;20116;-62
2022/04/16 06:54:01;;;;;;;2.25;1.08;;;;;;;22.66;29.61;102624.47;4999800;28;20042;-62
2022/04/16 06:56:29;;;;;;;2.92;1.00;;;;;;;22.69;29.53;102634.06;4998567;28;20050;-62
2022/04/16 06:58:55;;;;;;;2.03;0.85;;;;;;;22.93;27.95;102624.59;5005248;28;20056;-62
2022/04/16 07:01:23;;;;;;;1.52;0.90;;;;;;;23.20;28.06;102633.47;5000107;28;20061;-62
2022/04/16 07:03:49;;;;;;;2.65;0.80;;;;;;;23.45;28.30;102633.56;4999951;28;20057;-62
2022/04/16 07:06:16;;;;;;;3.10;0.80;;;;;;;23.49;28.00;102635.22;4999873;28;20379;-62
2022/04/16 07:08:42;;;;;;;4.47;0.98;;;;;;;23.66;27.83;102624.97;4999229;28;20050;-61
2022/04/16 07:11:09;;;;;;;3.10;1.27;;;;;;;24.19;27.58;102630.19;4997821;28;20058;-61
2022/04/16 07:13:35;;;;;;;3.90;1.20;;;;;;;24.38;26.91;102628.66;4997467;28;20051;-61
2022/04/16 07:16:02;;;;;;;3.85;1.10;;;;;;;24.43;26.73;102634.66;4997593;28;20090;-61
2022/04/16 07:18:29;;;;;;;3.65;1.35;;;;;;;24.61;26.14;102643.72;4996901;28;20058;-60
2022/04/16 07:20:56;;;;;;;2.45;1.00;;;;;;;24.74;26.10;102639.69;4997392;28;20406;-61
2022/04/16 07:23:22;;;;;;;1.92;0.70;;;;;;;24.83;25.45;102633.16;4996638;28;20046;-61
2022/04/16 07:25:49;;;;;;;3.88;1.30;;;;;;;24.50;26.27;102646.78;4996244;28;20054;-62
2022/04/16 07:28:21;;;;;;;4.80;1.30;;;;;;;24.09;26.63;102655.28;4995927;28;20403;-61
2022/04/16 07:30:50;;;;;;;2.65;1.10;;;;;;;23.80;26.87;102649.19;4995959;28;20050;-61
2022/04/16 07:33:17;;;;;;;3.22;1.02;;;;;;;23.42;27.39;102646.91;4996068;28;20042;-61
2022/04/16 07:35:46;;;;;;;2.65;1.17;;;;;;;23.08;27.22;102652.38;4995896;28;20062;-61
2022/04/16 07:38:13;;;;;;;3.20;1.20;;;;;;;22.78;28.27;102654.09;4996456;28;20054;-61
2022/04/16 07:40:39;;;;;;;3.97;1.15;;;;;;;22.45;28.64;102640.94;4997361;28;20061;-61
2022/04/16 07:43:06;;;;;;;2.75;1.13;;;;;;;22.26;28.82;102655.53;4997207;28;20050;-61
2022/04/16 07:45:33;;;;;;;3.75;1.27;;;;;;;22.11;29.29;102656.81;4996319;28;20061;-61
2022/04/16 07:47:59;;;;;;;3.38;1.25;;;;;;;22.03;29.90;102654.38;4996178;28;20046;-61
2022/04/16 07:50:26;;;;;;;3.95;1.13;;;;;;;22.22;29.03;102660.03;4996811;28;20053;-61
2022/04/16 07:52:55;;;;;;;3.83;1.08;;;;;;;22.34;28.76;102656.19;4996882;28;20073;-61
2022/04/16 07:55:22;;;;;;;2.38;0.90;;;;;;;22.61;29.15;102663.38;4996862;28;20063;-61
2022/04/16 07:57:48;;;;;;;2.38;1.00;;;;;;;22.97;28.34;102660.63;4996655;28;20046;-61
2022/04/16 08:00:16;;;;;;;3.35;0.95;;;;;;;22.90;27.96;102664.38;4996793;28;20054;-61
2022/04/16 08:02:43;;;;;;;1.80;0.90;;;;;;;23.02;28.41;102660.47;4996644;28;20456;-61
2022/04/16 08:05:12;;;;;;;3.60;1.20;;;;;;;23.37;27.78;102657.59;4996773;28;20061;-61
2022/04/16 08:07:38;;;;;;;4.20;1.20;;;;;;;23.60;27.45;102656.94;4996690;28;20054;-61
2022/04/16 08:10:10;;;;;;;3.20;1.30;;;;;;;23.81;27.35;102650.91;4996840;28;20062;-62
2022/04/16 08:12:37;;;;;;;1.77;0.90;;;;;;;24.04;27.14;102644.00;4996293;28;20510;-61
2022/04/16 08:15:05;;;;;;;2.88;1.23;;;;;;;24.23;26.62;102645.06;4995888;28;20411;-62
2022/04/16 08:17:33;;;;;;;2.20;0.95;;;;;;;24.23;26.65;102637.13;4995965;28;20061;-61
2022/04/16 08:20:00;;;;;;;3.72;1.02;;;;;;;24.42;25.92;102638.22;4995348;28;20054;-61
2022/04/16 08:22:28;;;;;;;2.75;1.00;;;;;;;24.48;25.72;102642.47;4996013;28;20046;-61
2022/04/16 08:25:43;;;;;;;3.65;0.98;;;;;;;24.37;25.72;102642.81;4996014;28;20058;-61
2022/04/16 08:27:49;;;;;;;3.15;1.25;;;;;;;24.54;25.38;102648.41;4995107;28;20046;-61
2022/04/16 08:30:17;;;;;;;3.80;1.17;;;;;;;24.41;26.07;102647.09;4995929;28;20460;-61
2022/04/16 08:32:45;;;;;;;2.47;0.90;;;;;;;24.51;26.03;102642.34;4995269;28;20054;-62
2022/04/16 08:35:13;;;;;;;2.40;0.90;;;;;;;24.31;25.80;102658.94;4988913;28;20047;-61
2022/04/16 08:37:42;;;;;;;2.33;0.80;;;;;;;23.98;25.84;102653.03;4994507;28;20097;-61
2022/04/16 08:40:12;;;;;;;2.47;1.08;;;;;;;23.74;25.89;102654.69;4994162;28;20069;-61
2022/04/16 08:42:44;;;;;;;1.35;0.70;;;;;;;23.41;25.42;102661.91;4994121;28;20535;-61
2022/04/16 08:45:13;;;;;;;2.20;0.82;;;;;;;23.17;25.04;102668.81;4994205;28;20050;-61
2022/04/16 08:47:40;;;;;;;3.22;0.90;;;;;;;22.67;26.25;102662.34;4994217;28;20081;-61
2022/04/16 08:50:09;;;;;;;1.73;0.80;;;;;;;22.55;26.20;102657.41;4995152;28;20487;-61
2022/04/16 08:52:38;;;;;;;1.85;0.45;;;;;;;22.17;26.51;102671.63;4992823;28;20058;-61
2022/04/16 08:55:07;;;;;;;1.50;0.82;;;;;;;21.61;27.03;102664.19;4993330;28;20043;-61
2022/04/16 08:57:33;;;;;;;2.50;0.90;;;;;;;21.34;27.84;102667.47;4992944;28;20387;-61
2022/04/16 09:00:02;;;;;;;1.70;0.70;;;;;;;21.19;28.37;102678.31;4992953;28;20074;-61
2022/04/16 09:02:31;;;;;;;2.58;0.77;;;;;;;20.78;28.76;102673.00;4992344;28;20062;-62
2022/04/16 09:05:06;;;;;;;4.05;1.15;;;;;;;20.66;29.69;102665.34;4976204;28;20047;-61
2022/04/16 09:07:44;;;;;;;1.92;0.82;;;;;;;20.32;30.21;102672.13;4975838;28;20376;-61
2022/04/16 09:10:14;;;;;;;3.55;0.90;;;;;;;20.08;30.89;102676.91;4975984;28;20562;-61
2022/04/16 09:12:41;;;;;;;3.72;1.15;;;;;;;19.95;31.63;102672.75;4995440;28;20054;-61
2022/04/16 09:15:09;;;;;;;3.05;0.93;;;;;;;19.71;31.72;102683.66;4995405;28;20076;-61
2022/04/16 09:17:38;;;;;;;3.90;0.93;;;;;;;19.43;32.04;102677.91;4995129;28;20070;-61
2022/04/16 09:20:09;;;;;;;2.35;0.93;;;;;;;19.18;32.54;102682.63;4994824;28;20058;-60
2022/04/16 09:22:37;;;;;;;7.65;2.92;;;;;;;18.83;33.49;102686.56;4995490;28;20058;-60
2022/04/16 09:25:05;;;;;;;3.75;1.73;;;;;;;18.41;33.64;102681.75;4995387;28;20057;-60
2022/04/16 09:27:40;;;;;;;4.35;2.17;;;;;;;18.06;34.58;102693.41;4995166;28;20422;-61
2022/04/16 09:30:07;;;;;;;2.88;1.30;;;;;;;17.79;34.83;102696.28;4995384;28;20097;-61
2022/04/16 09:32:44;;;;;;;4.38;1.67;;;;;;;17.39;35.52;102701.72;4994936;28;20455;-62
2022/04/16 09:35:26;;;;;;;2.80;0.82;;;;;;;17.04;36.71;102700.13;4995017;28;20077;-61
2022/04/16 09:37:55;;;;;;;1.88;0.95;;;;;;;16.91;36.55;102692.31;4994905;28;20054;-60
2022/04/16 09:40:24;;;;;;;4.32;1.08;;;;;;;16.60;36.74;102696.72;4995182;28;20078;-61
2022/04/16 09:42:56;;;;;;;3.75;1.02;;;;;;;16.45;37.36;102713.34;4995139;28;20058;-61
2022/04/16 09:45:22;;;;;;;5.00;0.80;;;;;;;16.40;38.02;102704.63;4994679;28;20057;-60
2022/04/16 09:47:52;;;;;;;2.28;0.90;;;;;;;16.34;38.38;102695.03;4994840;28;20053;-60
2022/04/16 09:50:20;;;;;;;3.03;1.02;;;;;;;16.22;38.20;102709.88;4994950;28;20050;-60
2022/04/16 09:52:51;;;;;;;2.78;0.80;;;;;;;16.14;38.34;102707.28;4994837;28;20050;-61
2022/04/16 09:55:23;;;;;;;3.13;0.88;;;;;;;16.11;38.16;102717.69;4994966;28;20058;-61
2022/04/16 09:57:54;;;;;;;4.63;1.17;;;;;;;16.05;38.10;102712.47;4994897;28;20116;-60
2022/04/16 10:00:21;;;;;;;2.33;0.70;;;;;;;15.94;38.66;102714.22;4994909;28;20070;-60
2022/04/16 10:02:50;;;;;;;3.65;1.10;;;;;;;15.64;38.39;102713.31;4994737;28;20046;-60
2022/04/16 10:05:16;;;;;;;2.28;0.70;;;;;;;15.40;39.45;102713.19;4994406;28;20439;-60
2022/04/16 10:07:45;;;;;;;3.20;0.80;;;;;;;15.30;40.38;102714.03;4994293;28;20077;-60
2022/04/16 10:10:19;;;;;;;3.45;0.90;;;;;;;15.33;40.36;102719.28;4994418;28;20086;-60
2022/04/16 10:13:01;;;;;;;6.53;0.93;;;;;;;15.20;40.76;102717.50;4994687;28;20054;-59
2022/04/16 10:15:46;;;;;;;3.38;0.98;;;;;;;15.10;41.98;102722.69;4994239;28;20478;-59
2022/04/16 10:18:18;;;;;;;2.97;0.90;;;;;;;15.14;41.32;102724.44;4993668;28;20058;-59
2022/04/16 10:21:04;;;;;;;4.63;0.90;;;;;;;15.20;40.65;102720.09;4993968;28;20400;-59
2022/04/16 10:23:31;;;;;;;3.97;0.95;;;;;;;15.18;40.37;102720.09;4994293;28;20042;-61
2022/04/16 10:26:03;;;;;;;3.72;0.90;;;;;;;15.18;40.26;102719.22;4991426;28;20086;-60
2022/04/16 10:28:40;;;;;;;4.95;0.90;;;;;;;15.16;40.28;102716.59;4985275;28;20054;-59
2022/04/16 10:31:07;;;;;;;2.67;0.73;;;;;;;15.03;39.54;102718.25;4993285;28;20058;-59
2022/04/16 10:33:35;;;;;;;5.60;0.88;;;;;;;14.96;40.02;102713.88;4990743;28;20050;-60
2022/04/16 10:36:09;;;;;;;2.78;1.00;;;;;;;14.89;41.13;102706.00;4993729;28;20050;-60
2022/04/16 10:38:38;;;;;;;4.60;0.90;;;;;;;14.92;41.13;102722.56;4984442;28;20058;-61
2022/04/16 10:41:11;;;;;;;3.85;0.95;;;;;;;14.98;40.15;102717.38;4994002;28;20069;-60
2022/04/16 10:43:37;;;;;;;3.53;1.10;;;;;;;15.09;41.14;102718.31;4994150;28;20061;-60
2022/04/16 10:46:05;;;;;;;5.10;0.98;;;;;;;15.20;40.47;102717.50;4993731;28;20070;-60
2022/04/16 10:48:33;;;;;;;3.30;1.10;;;;;;;15.02;40.28;102713.91;4992391;28;20046;-60
2022/04/16 10:51:01;;;;;;;3.15;1.00;;;;;;;14.94;40.61;102720.84;4993777;28;20136;-60
2022/04/16 10:53:29;;;;;;;2.35;0.60;;;;;;;14.88;40.18;102718.19;4993639;28;20387;-61
2022/04/16 10:55:56;;;;;;;2.03;1.02;;;;;;;14.87;40.18;102724.28;4993546;28;20566;-60
2022/04/16 10:58:30;;;;;;;2.85;0.93;;;;;;;14.90;40.60;102724.28;4993843;28;20054;-60
2022/04/16 11:01:06;;;;;;;4.38;0.93;;;;;;;14.93;40.57;102719.09;4993715;28;20136;-61
2022/04/16 11:03:33;;;;;;;4.95;1.00;;;;;;;14.97;40.23;102726.06;4991722;28;20046;-60
2022/04/16 11:06:05;;;;;;;2.47;0.70;;;;;;;15.04;39.84;102722.63;4989809;28;20046;-60
2022/04/16 11:08:34;;;;;;;5.15;0.98;;;;;;;14.97;40.08;102726.06;4985543;28;20451;-60
2022/04/16 11:11:02;;;;;;;2.95;0.77;;;;;;;14.99;40.03;102724.34;4993601;28;20058;-60
2022/04/16 11:13:30;;;;;;;3.35;0.95;;;;;;;15.03;40.13;102725.22;4993555;28;20526;-60
2022/04/16 11:15:58;;;;;;;2.42;1.00;;;;;;;15.05;39.15;102713.91;4993825;28;20065;-60
2022/04/16 11:18:25;;;;;;;3.13;0.93;;;;;;;14.92;39.31;102726.91;4993683;28;20105;-61
2022/04/16 11:20:56;;;;;;;6.63;0.90;;;;;;;14.88;39.85;102726.03;4993623;28;20065;-61
2022/04/16 11:23:28;;;;;;;2.78;0.70;;;;;;;14.89;37.47;102722.56;4993807;28;20050;-61
2022/04/16 11:34:17;;;;;;;1.83;0.65;;;;;;;14.47;38.42;102726.63;4993623;28;20096;-61
2022/04/16 11:36:44;;;;;;;3.28;0.55;;;;;;;14.40;36.32;102732.63;4993552;28;20046;-61
2022/04/16 11:39:22;;;;;;;2.97;0.80;;;;;;;14.21;36.20;102741.19;4993463;28;20470;-61
2022/04/16 11:41:50;;;;;;;2.05;0.77;;;;;;;14.08;37.00;102739.34;4994760;28;20050;-61
2022/04/16 11:44:17;;;;;;;2.38;0.70;;;;;;;14.02;37.02;102734.91;4996656;28;20251;-59
2022/04/16 11:46:43;;;;;;;2.00;0.60;;;;;;;14.00;38.07;102735.75;4997421;28;20054;-58
2022/04/16 11:49:11;;;;;;;2.58;0.30;;;;;;;14.11;39.37;102736.75;4997393;28;20042;-57
2022/04/16 11:51:39;;;;;;;1.88;0.80;;;;;;;14.16;40.62;102737.66;4997066;28;20096;-54
2022/04/16 11:54:06;;;;;;;1.52;0.55;;;;;;;14.19;37.31;102735.09;4996774;28;20452;-54
2022/04/16 11:56:35;;;;;;;1.17;0.70;;;;;;;14.18;36.05;102723.78;4996772;28;20514;-54